sensor_id;sensor_type;location;lat;lon;timestamp;pressure;altitude;pressure_sealevel;temperature;humidity
64827;BME280;51265;53.972;12.286;2023-07-31T00:00:56;100132.59;;;12.12;100.00
64827;BME280;51265;53.972;12.286;2023-07-31T00:03:22;100127.06;;;12.12;100.00
64827;BME280;51265;53.972;12.286;2023-07-31T00:05:48;100125.28;;;12.07;100.00
64827;BME280;51265;53.972;12.286;2023-07-31T00:08:15;100123.47;;;12.03;100.00
64827;BME280;51265;53.972;12.286;2023-07-31T00:10:41;100134.03;;;12.01;100.00
64827;BME280;51265;53.972;12.286;2023-07-31T00:13:07;100137.44;;;11.98;100.00
64827;BME280;51265;53.972;12.286;2023-07-31T00:15:33;100136.94;;;11.95;100.00
64827;BME280;51265;53.972;12.286;2023-07-31T00:18:19;100134.81;;;11.92;100.00
64827;BME280;51265;53.972;12.286;2023-07-31T00:20:45;100148.09;;;11.90;100.00
64827;BME280;51265;53.972;12.286;2023-07-31T00:23:11;100142.59;;;11.90;100.00
64827;BME280;51265;53.972;12.286;2023-07-31T00:25:37;100142.47;;;11.95;100.00
64827;BME280;51265;53.972;12.286;2023-07-31T00:28:04;100137.28;;;12.03;100.00
64827;BME280;51265;53.972;12.286;2023-07-31T00:30:30;100130.97;;;12.11;100.00
64827;BME280;51265;53.972;12.286;2023-07-31T00:32:56;100135.03;;;12.13;100.00
64827;BME280;51265;53.972;12.286;2023-07-31T00:35:22;100125.44;;;12.11;100.00
64827;BME280;51265;53.972;12.286;2023-07-31T00:37:48;100126.41;;;12.06;100.00
64827;BME280;51265;53.972;12.286;2023-07-31T00:40:14;100121.03;;;12.01;100.00
64827;BME280;51265;53.972;12.286;2023-07-31T00:42:41;100123.28;;;11.99;100.00
64827;BME280;51265;53.972;12.286;2023-07-31T00:45:08;100125.41;;;11.93;100.00
64827;BME280;51265;53.972;12.286;2023-07-31T00:47:34;100123.78;;;11.92;100.00
64827;BME280;51265;53.972;12.286;2023-07-31T00:50:00;100115.66;;;11.87;100.00
64827;BME280;51265;53.972;12.286;2023-07-31T00:52:27;100121.81;;;11.84;100.00
64827;BME280;51265;53.972;12.286;2023-07-31T00:54:53;100121.25;;;11.82;100.00
64827;BME280;51265;53.972;12.286;2023-07-31T00:57:19;100120.78;;;11.80;100.00
64827;BME280;51265;53.972;12.286;2023-07-31T00:59:45;100123.84;;;11.79;100.00
64827;BME280;51265;53.972;12.286;2023-07-31T01:02:12;100118.19;;;11.75;100.00
64827;BME280;51265;53.972;12.286;2023-07-31T01:04:38;100108.91;;;11.71;100.00
64827;BME280;51265;53.972;12.286;2023-07-31T01:07:13;100114.91;;;11.73;100.00
64827;BME280;51265;53.972;12.286;2023-07-31T01:09:45;100100.63;;;11.71;100.00
64827;BME280;51265;53.972;12.286;2023-07-31T01:12:15;100105.34;;;11.70;100.00
64827;BME280;51265;53.972;12.286;2023-07-31T01:15:09;100103.69;;;11.69;100.00
64827;BME280;51265;53.972;12.286;2023-07-31T01:17:39;100104.03;;;11.68;100.00
64827;BME280;51265;53.972;12.286;2023-07-31T01:20:11;100095.75;;;11.68;100.00
64827;BME280;51265;53.972;12.286;2023-07-31T01:22:52;100090.22;;;11.68;100.00
64827;BME280;51265;53.972;12.286;2023-07-31T01:28:08;100095.75;;;11.68;100.00
64827;BME280;51265;53.972;12.286;2023-07-31T01:30:41;100098.19;;;11.69;100.00
64827;BME280;51265;53.972;12.286;2023-07-31T01:33:09;100095.75;;;11.68;100.00
64827;BME280;51265;53.972;12.286;2023-07-31T01:35:36;100101.63;;;11.75;100.00
64827;BME280;51265;53.972;12.286;2023-07-31T01:38:04;100094.63;;;11.78;100.00
64827;BME280;51265;53.972;12.286;2023-07-31T01:40:30;100092.84;;;11.73;100.00
64827;BME280;51265;53.972;12.286;2023-07-31T01:42:57;100096.56;;;11.68;100.00
64827;BME280;51265;53.972;12.286;2023-07-31T01:45:23;100093.78;;;11.68;100.00
64827;BME280;51265;53.972;12.286;2023-07-31T01:47:49;100097.53;;;11.64;100.00
64827;BME280;51265;53.972;12.286;2023-07-31T01:50:16;100086.81;;;11.62;100.00
64827;BME280;51265;53.972;12.286;2023-07-31T01:52:42;100086.81;;;11.62;100.00
64827;BME280;51265;53.972;12.286;2023-07-31T01:55:08;100090.06;;;11.64;100.00
64827;BME280;51265;53.972;12.286;2023-07-31T01:57:36;100083.22;;;11.62;100.00
64827;BME280;51265;53.972;12.286;2023-07-31T02:00:03;100077.56;;;11.67;100.00
64827;BME280;51265;53.972;12.286;2023-07-31T02:02:38;100077.56;;;11.67;100.00
64827;BME280;51265;53.972;12.286;2023-07-31T02:05:04;100076.06;;;11.61;100.00
64827;BME280;51265;53.972;12.286;2023-07-31T02:07:31;100070.09;;;11.59;100.00
64827;BME280;51265;53.972;12.286;2023-07-31T02:09:57;100059.88;;;11.59;100.00
64827;BME280;51265;53.972;12.286;2023-07-31T02:12:23;100059.88;;;11.59;100.00
64827;BME280;51265;53.972;12.286;2023-07-31T02:15:04;100055.63;;;11.62;100.00
64827;BME280;51265;53.972;12.286;2023-07-31T02:17:30;100058.38;;;11.62;100.00
64827;BME280;51265;53.972;12.286;2023-07-31T02:19:56;100064.56;;;11.59;100.00
64827;BME280;51265;53.972;12.286;2023-07-31T02:22:22;100071.19;;;11.58;100.00
64827;BME280;51265;53.972;12.286;2023-07-31T02:24:49;100065.19;;;11.56;100.00
64827;BME280;51265;53.972;12.286;2023-07-31T02:27:15;100064.38;;;11.55;100.00
64827;BME280;51265;53.972;12.286;2023-07-31T02:29:41;100052.53;;;11.55;100.00
64827;BME280;51265;53.972;12.286;2023-07-31T02:32:07;100053.53;;;11.59;100.00
64827;BME280;51265;53.972;12.286;2023-07-31T02:34:35;100059.06;;;11.59;100.00
64827;BME280;51265;53.972;12.286;2023-07-31T02:37:01;100057.41;;;11.58;100.00
64827;BME280;51265;53.972;12.286;2023-07-31T02:39:27;100061.31;;;11.57;100.00
64827;BME280;51265;53.972;12.286;2023-07-31T02:42:08;100057.25;;;11.54;100.00
64827;BME280;51265;53.972;12.286;2023-07-31T02:44:34;100049.47;;;11.56;100.00
64827;BME280;51265;53.972;12.286;2023-07-31T02:47:00;100048.66;;;11.56;100.00
64827;BME280;51265;53.972;12.286;2023-07-31T02:49:26;100044.75;;;11.57;100.00
64827;BME280;51265;53.972;12.286;2023-07-31T02:51:52;100046.06;;;11.59;100.00
64827;BME280;51265;53.972;12.286;2023-07-31T02:54:19;100041.84;;;11.62;100.00
64827;BME280;51265;53.972;12.286;2023-07-31T02:56:47;100050.00;;;11.67;100.00
64827;BME280;51265;53.972;12.286;2023-07-31T02:59:14;100045.78;;;11.78;100.00
64827;BME280;51265;53.972;12.286;2023-07-31T03:01:41;100045.34;;;11.85;100.00
64827;BME280;51265;53.972;12.286;2023-07-31T03:04:07;100043.75;;;11.92;100.00
64827;BME280;51265;53.972;12.286;2023-07-31T03:06:33;100047.50;;;11.96;100.00
64827;BME280;51265;53.972;12.286;2023-07-31T03:08:59;100044.91;;;12.00;100.00
64827;BME280;51265;53.972;12.286;2023-07-31T03:11:25;100043.94;;;12.05;100.00
64827;BME280;51265;53.972;12.286;2023-07-31T03:13:51;100044.41;;;12.07;100.00
64827;BME280;51265;53.972;12.286;2023-07-31T03:16:18;100045.56;;;12.06;100.00
64827;BME280;51265;53.972;12.286;2023-07-31T03:18:44;100046.69;;;12.05;100.00
64827;BME280;51265;53.972;12.286;2023-07-31T03:21:10;100043.28;;;12.08;100.00
64827;BME280;51265;53.972;12.286;2023-07-31T03:23:36;100031.44;;;12.16;100.00
64827;BME280;51265;53.972;12.286;2023-07-31T03:26:06;100035.16;;;12.20;100.00
64827;BME280;51265;53.972;12.286;2023-07-31T03:28:32;100039.41;;;12.26;100.00
64827;BME280;51265;53.972;12.286;2023-07-31T03:30:58;100049.81;;;12.29;100.00
64827;BME280;51265;53.972;12.286;2023-07-31T03:33:25;100051.25;;;12.35;100.00
64827;BME280;51265;53.972;12.286;2023-07-31T03:35:52;100056.94;;;12.48;100.00
64827;BME280;51265;53.972;12.286;2023-07-31T03:38:18;100053.53;;;12.59;100.00
64827;BME280;51265;53.972;12.286;2023-07-31T03:40:45;100057.44;;;12.67;100.00
64827;BME280;51265;53.972;12.286;2023-07-31T03:43:12;100058.22;;;12.76;100.00
64827;BME280;51265;53.972;12.286;2023-07-31T03:45:39;100053.03;;;12.83;100.00
64827;BME280;51265;53.972;12.286;2023-07-31T03:48:06;100062.13;;;12.92;100.00
64827;BME280;51265;53.972;12.286;2023-07-31T03:50:33;100052.03;;;12.96;100.00
64827;BME280;51265;53.972;12.286;2023-07-31T03:53:00;100047.63;;;13.04;100.00
64827;BME280;51265;53.972;12.286;2023-07-31T03:55:27;100053.59;;;13.15;100.00
64827;BME280;51265;53.972;12.286;2023-07-31T03:57:53;100053.09;;;13.21;100.00
64827;BME280;51265;53.972;12.286;2023-07-31T04:00:19;100044.81;;;13.30;100.00
64827;BME280;51265;53.972;12.286;2023-07-31T04:02:45;100047.69;;;13.42;100.00
64827;BME280;51265;53.972;12.286;2023-07-31T04:05:11;100037.38;;;13.52;100.00
64827;BME280;51265;53.972;12.286;2023-07-31T04:07:37;100037.94;;;13.66;100.00
64827;BME280;51265;53.972;12.286;2023-07-31T04:10:04;100036.44;;;13.77;100.00
64827;BME280;51265;53.972;12.286;2023-07-31T04:12:30;100021.94;;;13.80;100.00
64827;BME280;51265;53.972;12.286;2023-07-31T04:14:56;100023.34;;;13.86;100.00
64827;BME280;51265;53.972;12.286;2023-07-31T04:17:23;100020.13;;;13.84;100.00
64827;BME280;51265;53.972;12.286;2023-07-31T04:19:49;100015.53;;;13.88;100.00
64827;BME280;51265;53.972;12.286;2023-07-31T04:22:15;100007.84;;;13.94;100.00
64827;BME280;51265;53.972;12.286;2023-07-31T04:24:41;99995.75;;;13.99;100.00
64827;BME280;51265;53.972;12.286;2023-07-31T04:27:07;99995.53;;;14.04;100.00
64827;BME280;51265;53.972;12.286;2023-07-31T04:29:34;99982.84;;;14.03;100.00
64827;BME280;51265;53.972;12.286;2023-07-31T04:32:00;99975.50;;;14.07;100.00
64827;BME280;51265;53.972;12.286;2023-07-31T04:34:26;99974.16;;;14.13;100.00
64827;BME280;51265;53.972;12.286;2023-07-31T04:36:52;99983.88;;;14.19;100.00
64827;BME280;51265;53.972;12.286;2023-07-31T04:39:18;99971.91;;;14.27;100.00
64827;BME280;51265;53.972;12.286;2023-07-31T04:41:44;99965.81;;;14.34;100.00
64827;BME280;51265;53.972;12.286;2023-07-31T04:44:10;99969.19;;;14.39;100.00
64827;BME280;51265;53.972;12.286;2023-07-31T04:46:37;99962.28;;;14.45;100.00
64827;BME280;51265;53.972;12.286;2023-07-31T04:49:03;99955.41;;;14.52;100.00
64827;BME280;51265;53.972;12.286;2023-07-31T04:51:29;99954.97;;;14.62;100.00
64827;BME280;51265;53.972;12.286;2023-07-31T04:53:56;99956.84;;;14.70;100.00
64827;BME280;51265;53.972;12.286;2023-07-31T04:56:22;99943.91;;;14.74;100.00
64827;BME280;51265;53.972;12.286;2023-07-31T04:58:48;99946.25;;;14.84;100.00
64827;BME280;51265;53.972;12.286;2023-07-31T05:01:14;99949.47;;;14.86;100.00
64827;BME280;51265;53.972;12.286;2023-07-31T05:03:40;99945.81;;;14.94;100.00
64827;BME280;51265;53.972;12.286;2023-07-31T05:06:07;99941.44;;;15.06;100.00
64827;BME280;51265;53.972;12.286;2023-07-31T05:08:33;99945.34;;;15.05;100.00
64827;BME280;51265;53.972;12.286;2023-07-31T05:10:59;99939.91;;;15.08;100.00
64827;BME280;51265;53.972;12.286;2023-07-31T05:13:25;99933.81;;;15.15;100.00
64827;BME280;51265;53.972;12.286;2023-07-31T05:15:51;99932.41;;;15.21;100.00
64827;BME280;51265;53.972;12.286;2023-07-31T05:21:05;99909.53;;;15.36;100.00
64827;BME280;51265;53.972;12.286;2023-07-31T05:23:32;99913.69;;;15.42;100.00
64827;BME280;51265;53.972;12.286;2023-07-31T05:26:05;99897.50;;;15.44;100.00
64827;BME280;51265;53.972;12.286;2023-07-31T05:28:34;99903.38;;;15.55;100.00
64827;BME280;51265;53.972;12.286;2023-07-31T05:31:01;99900.47;;;15.64;100.00
64827;BME280;51265;53.972;12.286;2023-07-31T05:33:28;99899.72;;;15.91;100.00
64827;BME280;51265;53.972;12.286;2023-07-31T05:35:54;99890.00;;;15.98;100.00
64827;BME280;51265;53.972;12.286;2023-07-31T05:38:20;99882.38;;;15.94;100.00
64827;BME280;51265;53.972;12.286;2023-07-31T05:40:46;99882.81;;;15.97;100.00
64827;BME280;51265;53.972;12.286;2023-07-31T05:43:13;99878.84;;;16.10;100.00
64827;BME280;51265;53.972;12.286;2023-07-31T05:45:39;99884.88;;;16.00;100.00
64827;BME280;51265;53.972;12.286;2023-07-31T05:48:06;99872.72;;;16.04;100.00
64827;BME280;51265;53.972;12.286;2023-07-31T05:50:32;99873.78;;;16.00;100.00
64827;BME280;51265;53.972;12.286;2023-07-31T05:52:58;99880.75;;;15.93;100.00
64827;BME280;51265;53.972;12.286;2023-07-31T05:55:25;99872.41;;;15.93;100.00
64827;BME280;51265;53.972;12.286;2023-07-31T05:57:53;99867.81;;;15.85;100.00
64827;BME280;51265;53.972;12.286;2023-07-31T06:00:20;99867.97;;;16.05;100.00
64827;BME280;51265;53.972;12.286;2023-07-31T06:02:47;99868.53;;;16.10;100.00
64827;BME280;51265;53.972;12.286;2023-07-31T06:05:14;99871.31;;;16.10;100.00
64827;BME280;51265;53.972;12.286;2023-07-31T06:07:40;99867.00;;;16.13;100.00
64827;BME280;51265;53.972;12.286;2023-07-31T06:10:07;99869.69;;;16.09;100.00
64827;BME280;51265;53.972;12.286;2023-07-31T06:12:35;99860.53;;;16.09;100.00
64827;BME280;51265;53.972;12.286;2023-07-31T06:15:02;99860.53;;;16.09;100.00
64827;BME280;51265;53.972;12.286;2023-07-31T06:17:29;99854.75;;;16.14;100.00
64827;BME280;51265;53.972;12.286;2023-07-31T06:19:56;99857.69;;;16.21;100.00
64827;BME280;51265;53.972;12.286;2023-07-31T06:22:22;99849.38;;;16.21;100.00
64827;BME280;51265;53.972;12.286;2023-07-31T06:24:48;99864.00;;;16.18;100.00
64827;BME280;51265;53.972;12.286;2023-07-31T06:27:15;99860.75;;;16.16;100.00
64827;BME280;51265;53.972;12.286;2023-07-31T06:29:42;99867.81;;;16.13;100.00
64827;BME280;51265;53.972;12.286;2023-07-31T06:32:08;99867.91;;;16.17;100.00
64827;BME280;51265;53.972;12.286;2023-07-31T06:34:34;99871.84;;;16.16;100.00
64827;BME280;51265;53.972;12.286;2023-07-31T06:37:00;99850.59;;;16.08;100.00
64827;BME280;51265;53.972;12.286;2023-07-31T06:39:27;99863.25;;;16.21;100.00
64827;BME280;51265;53.972;12.286;2023-07-31T06:41:53;99857.69;;;16.21;100.00
64827;BME280;51265;53.972;12.286;2023-07-31T06:44:20;99847.31;;;16.18;100.00
64827;BME280;51265;53.972;12.286;2023-07-31T06:46:46;99834.66;;;16.21;100.00
64827;BME280;51265;53.972;12.286;2023-07-31T06:49:12;99824.34;;;16.21;100.00
64827;BME280;51265;53.972;12.286;2023-07-31T06:51:41;99831.72;;;16.29;100.00
64827;BME280;51265;53.972;12.286;2023-07-31T06:54:08;99819.91;;;16.32;100.00
64827;BME280;51265;53.972;12.286;2023-07-31T06:56:34;99825.03;;;16.30;100.00
64827;BME280;51265;53.972;12.286;2023-07-31T06:59:00;99827.06;;;16.33;100.00
64827;BME280;51265;53.972;12.286;2023-07-31T07:01:27;99821.25;;;16.38;100.00
64827;BME280;51265;53.972;12.286;2023-07-31T07:03:54;99817.25;;;16.52;100.00
64827;BME280;51265;53.972;12.286;2023-07-31T07:06:22;99811.06;;;16.74;100.00
64827;BME280;51265;53.972;12.286;2023-07-31T07:08:48;99802.50;;;16.67;100.00
64827;BME280;51265;53.972;12.286;2023-07-31T07:11:15;99806.81;;;16.80;100.00
64827;BME280;51265;53.972;12.286;2023-07-31T07:13:41;99807.19;;;16.95;100.00
64827;BME280;51265;53.972;12.286;2023-07-31T07:16:07;99803.56;;;17.10;100.00
64827;BME280;51265;53.972;12.286;2023-07-31T07:18:34;99793.22;;;17.46;100.00
64827;BME280;51265;53.972;12.286;2023-07-31T07:21:00;99788.09;;;17.67;100.00
64827;BME280;51265;53.972;12.286;2023-07-31T07:23:28;99784.31;;;17.75;100.00
64827;BME280;51265;53.972;12.286;2023-07-31T07:25:54;99772.38;;;17.75;100.00
64827;BME280;51265;53.972;12.286;2023-07-31T07:28:21;99769.75;;;18.05;100.00
64827;BME280;51265;53.972;12.286;2023-07-31T07:30:53;99762.09;;;17.98;100.00
64827;BME280;51265;53.972;12.286;2023-07-31T07:33:19;99748.81;;;17.91;100.00
64827;BME280;51265;53.972;12.286;2023-07-31T07:35:46;99768.16;;;17.84;100.00
64827;BME280;51265;53.972;12.286;2023-07-31T07:38:14;99760.13;;;17.79;100.00
64827;BME280;51265;53.972;12.286;2023-07-31T07:40:40;99755.56;;;17.71;100.00
64827;BME280;51265;53.972;12.286;2023-07-31T07:43:07;99760.56;;;17.81;100.00
64827;BME280;51265;53.972;12.286;2023-07-31T07:45:33;99764.78;;;17.95;100.00
64827;BME280;51265;53.972;12.286;2023-07-31T07:47:59;99762.44;;;17.97;100.00
64827;BME280;51265;53.972;12.286;2023-07-31T07:50:26;99755.50;;;18.10;99.04
64827;BME280;51265;53.972;12.286;2023-07-31T07:52:52;99762.50;;;18.69;98.42
64827;BME280;51265;53.972;12.286;2023-07-31T07:55:18;99741.56;;;18.79;94.35
64827;BME280;51265;53.972;12.286;2023-07-31T07:57:44;99722.69;;;18.46;91.92
64827;BME280;51265;53.972;12.286;2023-07-31T08:00:12;99727.13;;;18.50;92.92
64827;BME280;51265;53.972;12.286;2023-07-31T08:02:43;99727.94;;;18.74;92.93
64827;BME280;51265;53.972;12.286;2023-07-31T08:05:09;99709.47;;;18.42;90.88
64827;BME280;51265;53.972;12.286;2023-07-31T08:07:35;99719.56;;;18.51;90.31
64827;BME280;51265;53.972;12.286;2023-07-31T08:10:01;99722.34;;;18.24;91.90
64827;BME280;51265;53.972;12.286;2023-07-31T08:12:27;99726.25;;;18.20;93.30
64827;BME280;51265;53.972;12.286;2023-07-31T08:14:54;99735.03;;;17.99;94.17
64827;BME280;51265;53.972;12.286;2023-07-31T08:17:20;99740.06;;;17.93;95.88
64827;BME280;51265;53.972;12.286;2023-07-31T08:19:46;99732.88;;;18.11;96.01
64827;BME280;51265;53.972;12.286;2023-07-31T08:22:12;99736.50;;;18.15;94.89
64827;BME280;51265;53.972;12.286;2023-07-31T08:24:38;99727.16;;;18.27;94.35
64827;BME280;51265;53.972;12.286;2023-07-31T08:27:06;99735.34;;;18.39;94.42
64827;BME280;51265;53.972;12.286;2023-07-31T08:29:32;99735.63;;;18.57;95.13
64827;BME280;51265;53.972;12.286;2023-07-31T08:31:58;99723.91;;;18.71;92.97
64827;BME280;51265;53.972;12.286;2023-07-31T08:34:24;99717.03;;;18.91;91.83
64827;BME280;51265;53.972;12.286;2023-07-31T08:36:50;99703.63;;;18.48;90.98
64827;BME280;51265;53.972;12.286;2023-07-31T08:39:17;99713.53;;;18.22;92.06
64827;BME280;51265;53.972;12.286;2023-07-31T08:41:43;99719.00;;;18.15;92.57
64827;BME280;51265;53.972;12.286;2023-07-31T08:44:10;99741.72;;;18.40;93.86
64827;BME280;51265;53.972;12.286;2023-07-31T08:46:38;99735.22;;;18.32;93.89
64827;BME280;51265;53.972;12.286;2023-07-31T08:49:05;99739.63;;;18.60;93.91
64827;BME280;51265;53.972;12.286;2023-07-31T08:51:34;99731.59;;;18.55;94.55
64827;BME280;51265;53.972;12.286;2023-07-31T08:54:01;99722.03;;;18.56;93.41
64827;BME280;51265;53.972;12.286;2023-07-31T08:56:28;99727.50;;;18.72;93.24
64827;BME280;51265;53.972;12.286;2023-07-31T08:58:54;99704.44;;;18.52;91.12
64827;BME280;51265;53.972;12.286;2023-07-31T09:01:21;99700.91;;;18.55;90.40
64827;BME280;51265;53.972;12.286;2023-07-31T09:03:49;99704.34;;;18.45;91.52
64827;BME280;51265;53.972;12.286;2023-07-31T09:06:18;99721.41;;;18.66;92.04
64827;BME280;51265;53.972;12.286;2023-07-31T09:08:46;99724.88;;;18.82;92.86
64827;BME280;51265;53.972;12.286;2023-07-31T09:11:13;99734.50;;;18.62;94.32
64827;BME280;51265;53.972;12.286;2023-07-31T09:13:39;99736.94;;;18.40;94.97
64827;BME280;51265;53.972;12.286;2023-07-31T09:16:06;99729.50;;;18.25;95.80
64827;BME280;51265;53.972;12.286;2023-07-31T09:18:53;99736.44;;;18.12;98.13
64827;BME280;51265;53.972;12.286;2023-07-31T09:21:19;99743.69;;;17.94;100.00
64827;BME280;51265;53.972;12.286;2023-07-31T09:23:46;99754.53;;;17.99;100.00
64827;BME280;51265;53.972;12.286;2023-07-31T09:26:32;99749.56;;;17.50;100.00
64827;BME280;51265;53.972;12.286;2023-07-31T09:29:00;99765.53;;;17.53;100.00
64827;BME280;51265;53.972;12.286;2023-07-31T09:31:38;99763.63;;;17.57;100.00
64827;BME280;51265;53.972;12.286;2023-07-31T09:34:05;99768.78;;;17.74;100.00
64827;BME280;51265;53.972;12.286;2023-07-31T09:36:31;99767.19;;;17.96;100.00
64827;BME280;51265;53.972;12.286;2023-07-31T09:39:04;99771.75;;;18.27;100.00
64827;BME280;51265;53.972;12.286;2023-07-31T09:41:31;99766.19;;;18.27;100.00
64827;BME280;51265;53.972;12.286;2023-07-31T09:43:57;99766.06;;;18.20;100.00
64827;BME280;51265;53.972;12.286;2023-07-31T09:46:26;99761.47;;;18.08;100.00
64827;BME280;51265;53.972;12.286;2023-07-31T09:48:53;99770.31;;;18.37;100.00
64827;BME280;51265;53.972;12.286;2023-07-31T09:51:26;99764.13;;;18.47;100.00
64827;BME280;51265;53.972;12.286;2023-07-31T09:53:52;99754.34;;;18.57;100.00
64827;BME280;51265;53.972;12.286;2023-07-31T09:56:19;99745.25;;;18.86;100.00
64827;BME280;51265;53.972;12.286;2023-07-31T09:58:47;99734.63;;;18.96;100.00
64827;BME280;51265;53.972;12.286;2023-07-31T10:01:14;99724.75;;;19.32;99.72
64827;BME280;51265;53.972;12.286;2023-07-31T10:03:40;99722.34;;;19.64;96.78
64827;BME280;51265;53.972;12.286;2023-07-31T10:06:10;99715.59;;;20.02;95.66
64827;BME280;51265;53.972;12.286;2023-07-31T10:08:37;99694.50;;;20.12;92.16
64827;BME280;51265;53.972;12.286;2023-07-31T10:11:04;99679.28;;;20.54;90.15
64827;BME280;51265;53.972;12.286;2023-07-31T10:13:30;99666.25;;;20.79;87.06
64827;BME280;51265;53.972;12.286;2023-07-31T10:15:59;99666.31;;;20.94;86.71
64827;BME280;51265;53.972;12.286;2023-07-31T10:18:27;99644.84;;;21.12;84.64
64827;BME280;51265;53.972;12.286;2023-07-31T10:20:54;99644.97;;;21.48;83.28
64827;BME280;51265;53.972;12.286;2023-07-31T10:23:22;99637.06;;;22.00;81.94
64827;BME280;51265;53.972;12.286;2023-07-31T10:25:49;99612.25;;;22.16;78.89
64827;BME280;51265;53.972;12.286;2023-07-31T10:28:15;99615.00;;;22.02;79.76
64827;BME280;51265;53.972;12.286;2023-07-31T10:30:42;99613.81;;;21.92;80.50
64827;BME280;51265;53.972;12.286;2023-07-31T10:33:08;99609.81;;;21.75;81.75
64827;BME280;51265;53.972;12.286;2023-07-31T10:35:35;99617.00;;;21.66;82.76
64827;BME280;51265;53.972;12.286;2023-07-31T10:38:11;99604.19;;;21.75;81.40
64827;BME280;51265;53.972;12.286;2023-07-31T10:40:38;99615.44;;;22.25;81.27
64827;BME280;51265;53.972;12.286;2023-07-31T10:43:05;99589.66;;;22.73;79.09
64827;BME280;51265;53.972;12.286;2023-07-31T10:45:39;99570.00;;;22.73;76.49
64827;BME280;51265;53.972;12.286;2023-07-31T10:48:15;99532.75;;;22.66;74.37
64827;BME280;51265;53.972;12.286;2023-07-31T10:50:54;99545.13;;;22.82;75.03
64827;BME280;51265;53.972;12.286;2023-07-31T10:53:29;99521.50;;;22.73;74.04
64827;BME280;51265;53.972;12.286;2023-07-31T10:56:00;99515.75;;;23.05;72.45
64827;BME280;51265;53.972;12.286;2023-07-31T10:58:27;99522.91;;;23.20;73.01
64827;BME280;51265;53.972;12.286;2023-07-31T11:01:08;99516.41;;;23.30;72.47
64827;BME280;51265;53.972;12.286;2023-07-31T11:03:48;99495.53;;;23.28;70.41
64827;BME280;51265;53.972;12.286;2023-07-31T11:06:16;99482.50;;;23.03;70.24
64827;BME280;51265;53.972;12.286;2023-07-31T11:08:44;99464.59;;;22.69;69.85
64827;BME280;51265;53.972;12.286;2023-07-31T11:11:13;99479.97;;;22.32;71.17
64827;BME280;51265;53.972;12.286;2023-07-31T11:13:41;99494.50;;;21.91;71.78
64827;BME280;51265;53.972;12.286;2023-07-31T11:16:09;99502.47;;;21.07;73.97
64827;BME280;51265;53.972;12.286;2023-07-31T11:18:37;99540.47;;;20.31;77.22
64827;BME280;51265;53.972;12.286;2023-07-31T11:21:04;99592.06;;;19.82;81.48
64827;BME280;51265;53.972;12.286;2023-07-31T11:23:30;99613.31;;;19.53;85.28
64827;BME280;51265;53.972;12.286;2023-07-31T11:25:59;99642.16;;;18.97;90.55
64827;BME280;51265;53.972;12.286;2023-07-31T11:28:26;99659.31;;;18.69;97.00
64827;BME280;51265;53.972;12.286;2023-07-31T11:30:52;99677.09;;;18.34;100.00
64827;BME280;51265;53.972;12.286;2023-07-31T11:33:21;99688.88;;;18.24;100.00
64827;BME280;51265;53.972;12.286;2023-07-31T11:35:48;99704.00;;;18.23;100.00
64827;BME280;51265;53.972;12.286;2023-07-31T11:38:25;99693.94;;;18.41;100.00
64827;BME280;51265;53.972;12.286;2023-07-31T11:40:56;99696.19;;;18.32;100.00
64827;BME280;51265;53.972;12.286;2023-07-31T11:43:23;99699.28;;;18.27;100.00
64827;BME280;51265;53.972;12.286;2023-07-31T11:45:58;99708.81;;;18.26;100.00
64827;BME280;51265;53.972;12.286;2023-07-31T11:48:26;99709.31;;;18.09;100.00
64827;BME280;51265;53.972;12.286;2023-07-31T11:51:02;99713.22;;;17.62;100.00
64827;BME280;51265;53.972;12.286;2023-07-31T11:53:49;99720.25;;;17.17;100.00
64827;BME280;51265;53.972;12.286;2023-07-31T11:56:18;99721.38;;;16.97;100.00
64827;BME280;51265;53.972;12.286;2023-07-31T11:58:49;99720.19;;;16.78;100.00
64827;BME280;51265;53.972;12.286;2023-07-31T12:01:19;99733.91;;;16.55;100.00
64827;BME280;51265;53.972;12.286;2023-07-31T12:03:47;99732.16;;;16.47;100.00
64827;BME280;51265;53.972;12.286;2023-07-31T12:06:13;99736.97;;;16.50;100.00
64827;BME280;51265;53.972;12.286;2023-07-31T12:08:39;99725.63;;;16.39;100.00
64827;BME280;51265;53.972;12.286;2023-07-31T12:11:08;99723.63;;;16.24;100.00
64827;BME280;51265;53.972;12.286;2023-07-31T12:13:38;99723.44;;;16.17;100.00
64827;BME280;51265;53.972;12.286;2023-07-31T12:16:04;99711.72;;;16.24;100.00
64827;BME280;51265;53.972;12.286;2023-07-31T12:18:35;99717.47;;;16.31;100.00
64827;BME280;51265;53.972;12.286;2023-07-31T12:21:04;99704.56;;;16.23;100.00
64827;BME280;51265;53.972;12.286;2023-07-31T12:23:32;99703.56;;;16.15;100.00
64827;BME280;51265;53.972;12.286;2023-07-31T12:26:12;99696.41;;;16.14;100.00
64827;BME280;51265;53.972;12.286;2023-07-31T12:28:45;99699.53;;;16.12;100.00
64827;BME280;51265;53.972;12.286;2023-07-31T12:31:17;99702.88;;;16.18;100.00
64827;BME280;51265;53.972;12.286;2023-07-31T12:33:45;99691.75;;;16.18;100.00
64827;BME280;51265;53.972;12.286;2023-07-31T12:36:16;99691.47;;;16.23;100.00
64827;BME280;51265;53.972;12.286;2023-07-31T12:38:44;99690.47;;;16.31;100.00
64827;BME280;51265;53.972;12.286;2023-07-31T12:41:11;99688.31;;;16.40;100.00
64827;BME280;51265;53.972;12.286;2023-07-31T12:43:40;99673.91;;;16.35;100.00
64827;BME280;51265;53.972;12.286;2023-07-31T12:46:07;99674.53;;;16.28;100.00